createdAt,value
2018-05-14T00:00:04.187Z,0.63
2018-05-14T00:02:31.693Z,0.63
2018-05-14T00:04:59.203Z,0.60
2018-05-14T00:07:26.914Z,0.60
2018-05-14T00:09:54.566Z,0.63
2018-05-14T00:12:22.220Z,0.50
2018-05-14T00:14:49.872Z,0.70
2018-05-14T00:17:17.673Z,0.60
2018-05-14T00:19:45.525Z,0.70
2018-05-14T00:22:13.179Z,0.80
2018-05-14T00:24:40.682Z,0.60
2018-05-14T00:27:08.733Z,0.50
2018-05-14T00:29:36.383Z,0.77
2018-05-14T00:32:03.889Z,0.50
2018-05-14T00:34:31.640Z,0.60
2018-05-14T00:36:59.347Z,1.00
2018-05-14T00:39:27.144Z,0.70
2018-05-14T00:41:54.852Z,0.83
2018-05-14T00:44:22.648Z,0.50
2018-05-14T00:46:50.357Z,0.70
2018-05-14T00:49:17.875Z,0.70
2018-05-14T00:51:45.802Z,0.70
2018-05-14T00:54:13.458Z,0.73
2018-05-14T00:56:40.947Z,0.60
2018-05-14T00:59:09.206Z,0.60
2018-05-14T01:01:37.008Z,0.67
2018-05-14T01:04:04.709Z,0.70
2018-05-14T01:06:32.274Z,0.80
2018-05-14T01:08:59.719Z,0.70
2018-05-14T01:11:27.425Z,0.57
2018-05-14T01:13:54.990Z,0.53
2018-05-14T01:16:22.782Z,0.50
2018-05-14T01:18:50.283Z,0.70
2018-05-14T01:21:17.917Z,0.50
2018-05-14T01:23:45.419Z,0.60
2018-05-14T01:26:12.915Z,0.43
2018-05-14T01:28:40.606Z,0.70
2018-05-14T01:31:08.310Z,0.67
2018-05-14T01:33:35.815Z,0.83
2018-05-14T01:36:03.619Z,0.67
2018-05-14T01:38:31.113Z,0.53
2018-05-14T01:40:58.871Z,0.60
2018-05-14T01:43:26.528Z,0.50
2018-05-14T01:45:54.376Z,0.50
2018-05-14T01:48:22.229Z,0.50
2018-05-14T01:50:49.934Z,0.50
2018-05-14T01:53:17.630Z,0.40
2018-05-14T01:55:45.386Z,0.50
2018-05-14T01:58:13.038Z,0.43
2018-05-14T02:00:40.887Z,0.53
2018-05-14T02:03:08.589Z,0.43
2018-05-14T02:05:36.393Z,0.40
2018-05-14T02:08:04.106Z,0.53
2018-05-14T02:10:31.748Z,0.43
2018-05-14T02:12:59.351Z,0.40
2018-05-14T02:15:27.006Z,0.50
2018-05-14T02:17:54.710Z,0.40
2018-05-14T02:20:22.509Z,0.50
2018-05-14T02:22:50.098Z,0.40
2018-05-14T02:25:17.595Z,0.40
2018-05-14T02:27:45.520Z,0.50
2018-05-14T02:30:13.267Z,0.60
2018-05-14T02:32:40.758Z,0.50
2018-05-14T02:35:08.430Z,0.43
2018-05-14T02:37:35.922Z,0.60
2018-05-14T02:40:03.739Z,0.60
2018-05-14T02:42:31.590Z,0.60
2018-05-14T02:44:59.300Z,0.47
2018-05-14T02:47:26.837Z,0.60
2018-05-14T02:49:54.745Z,0.50
2018-05-14T02:52:22.397Z,0.50
2018-05-14T02:54:50.249Z,0.50
2018-05-14T02:57:17.955Z,0.40
2018-05-14T02:59:45.556Z,0.70
2018-05-14T03:02:13.408Z,0.60
2018-05-14T03:04:41.259Z,0.50
2018-05-14T03:07:09.305Z,0.50
2018-05-14T03:09:36.830Z,0.63
2018-05-14T03:12:04.334Z,0.47
2018-05-14T03:14:32.264Z,0.30
2018-05-14T03:16:59.763Z,0.60
2018-05-14T03:19:27.421Z,0.53
2018-05-14T03:21:55.223Z,0.47
2018-05-14T03:24:23.127Z,0.60
2018-05-14T03:26:50.925Z,0.60
2018-05-14T03:29:18.774Z,0.60
2018-05-14T03:31:46.625Z,0.60
2018-05-14T03:34:14.278Z,0.70
2018-05-14T03:36:41.932Z,0.80
2018-05-14T03:39:10.372Z,0.50
2018-05-14T03:41:38.222Z,0.73
2018-05-14T03:44:05.733Z,0.63
2018-05-14T03:46:33.251Z,0.60
2018-05-14T03:49:00.742Z,0.53
2018-05-14T03:51:28.251Z,0.50
2018-05-14T03:53:55.758Z,0.70
2018-05-14T03:56:23.270Z,0.70
2018-05-14T03:58:56.557Z,0.60
2018-05-14T04:01:30.132Z,0.53
2018-05-14T04:04:03.671Z,0.50
2018-05-14T04:06:34.275Z,0.60
2018-05-14T04:09:02.072Z,0.60
2018-05-14T04:11:30.511Z,0.80
2018-05-14T04:13:58.212Z,0.70
2018-05-14T04:16:25.855Z,0.50
2018-05-14T04:18:53.669Z,0.60
2018-05-14T04:21:21.519Z,0.70
2018-05-14T04:23:49.367Z,0.67
2018-05-14T04:26:16.934Z,0.40
2018-05-14T04:28:44.725Z,0.53
2018-05-14T04:31:12.526Z,0.60
2018-05-14T04:33:40.021Z,1.00
2018-05-14T04:36:07.690Z,1.30
2018-05-14T04:38:35.340Z,0.73
2018-05-14T04:41:02.853Z,0.70
2018-05-14T04:43:30.810Z,0.83
2018-05-14T04:45:58.322Z,1.03
2018-05-14T04:48:25.825Z,1.10
2018-05-14T04:50:53.610Z,0.63
2018-05-14T04:53:21.265Z,0.73
2018-05-14T04:55:49.062Z,0.60
2018-05-14T04:58:17.747Z,0.83
2018-05-14T05:00:45.404Z,0.77
2018-05-14T05:03:12.900Z,0.90
2018-05-14T05:05:40.511Z,1.00
2018-05-14T05:08:08.312Z,1.30
2018-05-14T05:10:35.833Z,0.77
2018-05-14T05:13:03.362Z,1.00
2018-05-14T05:15:30.915Z,1.40
2018-05-14T05:17:58.402Z,0.90
2018-05-14T05:20:26.187Z,0.80
2018-05-14T05:22:53.792Z,1.20
2018-05-14T05:25:21.283Z,0.60
2018-05-14T05:27:48.782Z,0.80
2018-05-14T05:30:16.295Z,0.90
2018-05-14T05:32:43.798Z,0.93
2018-05-14T05:35:11.310Z,1.20
2018-05-14T05:37:39.051Z,1.13
2018-05-14T05:40:06.871Z,0.70
2018-05-14T05:42:34.363Z,0.90
2018-05-14T05:45:02.061Z,1.20
2018-05-14T05:47:29.837Z,0.83
2018-05-14T05:49:57.439Z,0.80
2018-05-14T05:52:25.342Z,1.27
2018-05-14T05:54:52.994Z,1.00
2018-05-14T05:57:20.485Z,1.10
2018-05-14T05:59:48.249Z,1.30
2018-05-14T06:02:15.773Z,1.10
2018-05-14T06:04:43.750Z,0.70
2018-05-14T06:07:11.602Z,0.83
2018-05-14T06:09:39.452Z,0.67
2018-05-14T06:12:07.106Z,0.70
2018-05-14T06:14:34.958Z,0.60
2018-05-14T06:17:02.607Z,0.90
2018-05-14T06:19:30.558Z,0.80
2018-05-14T06:21:58.506Z,3.60
2018-05-14T06:24:26.158Z,1.40
2018-05-14T06:26:54.008Z,1.10
2018-05-14T06:29:21.664Z,0.83
2018-05-14T06:31:49.365Z,0.80
2018-05-14T06:34:17.167Z,0.70
2018-05-14T06:36:45.019Z,0.83
2018-05-14T06:39:12.867Z,1.10
2018-05-14T06:41:40.572Z,1.20
2018-05-14T06:44:08.075Z,0.80
2018-05-14T06:46:35.828Z,0.80
2018-05-14T06:49:03.681Z,0.87
2018-05-14T06:51:31.389Z,1.00
2018-05-14T06:53:59.379Z,1.00
2018-05-14T06:56:27.230Z,0.87
2018-05-14T06:58:55.080Z,0.70
2018-05-14T07:01:22.626Z,0.77
2018-05-14T07:03:50.237Z,0.73
2018-05-14T07:06:17.898Z,0.60
2018-05-14T07:08:45.697Z,1.30
2018-05-14T07:11:13.401Z,1.10
2018-05-14T07:13:41.195Z,1.37
2018-05-14T07:16:08.897Z,0.70
2018-05-14T07:18:36.700Z,0.70
2018-05-14T07:21:04.193Z,0.90
2018-05-14T07:23:31.751Z,1.30
2018-05-14T07:25:59.537Z,1.50
2018-05-14T07:28:27.317Z,1.00
2018-05-14T07:30:54.841Z,0.77
2018-05-14T07:33:22.476Z,1.43
2018-05-14T07:35:50.217Z,1.30
2018-05-14T07:38:17.501Z,0.97
2018-05-14T07:40:45.005Z,0.80
2018-05-14T07:43:12.693Z,0.80
2018-05-14T07:45:40.348Z,1.03
2018-05-14T07:48:08.005Z,0.80
2018-05-14T07:50:35.802Z,1.23
2018-05-14T07:53:03.311Z,0.90
2018-05-14T07:55:31.507Z,0.80
2018-05-14T07:57:59.207Z,1.10
2018-05-14T08:00:26.860Z,1.20
2018-05-14T08:02:54.659Z,0.97
2018-05-14T08:05:22.365Z,1.53
2018-05-14T08:07:50.165Z,1.57
2018-05-14T08:10:17.816Z,2.03
2018-05-14T08:12:45.667Z,1.20
2018-05-14T08:15:13.372Z,1.00
2018-05-14T08:17:41.172Z,0.90
2018-05-14T08:20:09.039Z,1.07
2018-05-14T08:22:36.869Z,1.20
2018-05-14T08:25:04.721Z,1.60
2018-05-14T08:27:32.572Z,1.33
2018-05-14T08:30:00.062Z,1.27
2018-05-14T08:32:27.986Z,1.23
2018-05-14T08:34:55.728Z,1.50
2018-05-14T08:37:23.433Z,1.23
2018-05-14T08:39:51.233Z,0.83
2018-05-14T08:42:18.743Z,1.00
2018-05-14T08:44:46.391Z,1.17
2018-05-14T08:47:13.993Z,0.87
2018-05-14T08:49:41.505Z,0.73
2018-05-14T08:52:09.045Z,2.00
2018-05-14T08:54:36.591Z,1.03
2018-05-14T08:57:04.157Z,1.00
2018-05-14T08:59:31.734Z,0.83
2018-05-14T09:01:59.255Z,1.00
2018-05-14T09:04:26.758Z,0.70
2018-05-14T09:06:54.278Z,0.80
2018-05-14T09:09:21.770Z,0.67
2018-05-14T09:11:49.284Z,0.80
2018-05-14T09:14:16.810Z,0.90
2018-05-14T09:16:44.325Z,0.97
2018-05-14T09:19:11.833Z,0.73
2018-05-14T09:21:39.347Z,1.30
2018-05-14T09:24:06.857Z,0.87
2018-05-14T09:26:34.422Z,0.93
2018-05-14T09:29:02.334Z,1.30
2018-05-14T09:31:30.185Z,2.00
2018-05-14T09:33:58.086Z,1.10
2018-05-14T09:36:25.597Z,1.20
2018-05-14T09:38:53.114Z,0.90
2018-05-14T09:41:20.737Z,0.80
2018-05-14T09:43:48.244Z,0.90
2018-05-14T09:46:15.754Z,0.80
2018-05-14T09:48:43.245Z,1.37
2018-05-14T09:51:10.956Z,0.70
2018-05-14T09:53:38.512Z,0.87
2018-05-14T09:56:06.028Z,0.77
2018-05-14T09:58:33.546Z,0.70
2018-05-14T10:01:01.184Z,0.63
2018-05-14T10:03:28.779Z,0.50
2018-05-14T10:05:56.322Z,0.60
2018-05-14T10:08:23.826Z,0.60
2018-05-14T10:10:51.398Z,0.37
2018-05-14T10:13:19.312Z,0.70
2018-05-14T10:15:46.817Z,0.50
2018-05-14T10:18:14.322Z,0.50
2018-05-14T10:20:41.809Z,0.63
2018-05-14T10:23:09.729Z,0.70
2018-05-14T10:25:37.257Z,0.97
2018-05-14T10:28:04.762Z,0.67
2018-05-14T10:30:32.542Z,0.80
2018-05-14T10:33:00.205Z,1.07
2018-05-14T10:35:28.443Z,0.70
2018-05-14T10:37:56.288Z,0.70
2018-05-14T10:40:24.087Z,0.70
2018-05-14T10:42:51.797Z,1.10
2018-05-14T10:45:19.651Z,0.40
2018-05-14T10:47:47.442Z,0.90
2018-05-14T10:50:15.097Z,0.80
2018-05-14T10:52:42.981Z,1.00
2018-05-14T10:55:10.602Z,0.87
2018-05-14T10:57:38.454Z,0.87
2018-05-14T11:00:06.303Z,1.03
2018-05-14T11:02:33.797Z,0.87
2018-05-14T11:05:01.671Z,0.87
2018-05-14T11:07:29.514Z,0.90
2018-05-14T11:09:57.113Z,0.77
2018-05-14T11:12:24.765Z,0.87
2018-05-14T11:14:52.266Z,0.80
2018-05-14T11:17:19.817Z,1.00
2018-05-14T11:19:47.584Z,0.77
2018-05-14T11:22:15.379Z,1.23
2018-05-14T11:24:43.080Z,0.90
2018-05-14T11:27:10.739Z,0.80
2018-05-14T11:29:38.536Z,1.00
2018-05-14T11:32:06.387Z,1.53
2018-05-14T11:34:34.295Z,1.30
2018-05-14T11:37:01.890Z,1.07
2018-05-14T11:39:29.984Z,1.63
2018-05-14T11:41:57.788Z,0.63
2018-05-14T11:44:25.638Z,0.83
2018-05-14T11:46:53.290Z,1.00
2018-05-14T11:49:20.998Z,1.10
2018-05-14T11:51:48.645Z,0.73
2018-05-14T11:54:16.312Z,1.00
2018-05-14T11:56:43.821Z,0.60
2018-05-14T11:59:11.609Z,0.70
2018-05-14T12:01:39.120Z,0.70
2018-05-14T12:04:07.060Z,2.10
2018-05-14T12:06:34.912Z,1.00
2018-05-14T12:09:02.819Z,1.33
2018-05-14T12:11:30.470Z,0.80
2018-05-14T12:13:58.266Z,1.00
2018-05-14T12:16:26.157Z,0.80
2018-05-14T12:18:53.675Z,0.83
2018-05-14T12:21:21.621Z,0.63
2018-05-14T12:23:49.326Z,0.90
2018-05-14T12:26:16.987Z,0.90
2018-05-14T12:28:44.535Z,0.90
2018-05-14T12:31:12.430Z,0.40
2018-05-14T12:33:40.084Z,0.50
2018-05-14T12:36:07.792Z,1.10
2018-05-14T12:38:35.588Z,0.40
2018-05-14T12:41:03.078Z,0.70
2018-05-14T12:43:30.626Z,1.40
2018-05-14T12:45:58.568Z,1.10
2018-05-14T12:48:26.398Z,1.10
2018-05-14T12:50:53.913Z,0.70
2018-05-14T12:53:21.557Z,0.70
2018-05-14T12:55:49.214Z,1.00
2018-05-14T12:58:17.014Z,0.40
2018-05-14T13:00:44.666Z,0.50
2018-05-14T13:03:12.318Z,0.60
2018-05-14T13:05:40.168Z,0.80
2018-05-14T13:08:07.823Z,0.70
2018-05-14T13:10:35.530Z,0.63
2018-05-14T13:13:03.191Z,0.50
2018-05-14T13:15:31.174Z,0.60
2018-05-14T13:17:58.687Z,0.90
2018-05-14T13:20:26.482Z,0.83
2018-05-14T13:22:54.190Z,0.90
2018-05-14T13:25:21.987Z,0.70
2018-05-14T13:27:49.640Z,1.03
2018-05-14T13:30:17.344Z,1.13
2018-05-14T13:32:45.144Z,1.20
2018-05-14T13:35:12.650Z,0.97
2018-05-14T13:37:40.658Z,1.20
2018-05-14T13:40:08.500Z,0.97
2018-05-14T13:42:36.201Z,0.83
2018-05-14T13:45:04.003Z,0.80
2018-05-14T13:47:32.245Z,0.73
2018-05-14T13:50:00.097Z,0.63
2018-05-14T13:52:27.946Z,1.03
2018-05-14T13:54:55.799Z,0.80
2018-05-14T13:57:23.321Z,0.77
2018-05-14T13:59:50.957Z,1.10
2018-05-14T14:02:18.606Z,1.20
2018-05-14T14:04:46.261Z,1.30
2018-05-14T14:07:14.064Z,1.00
2018-05-14T14:09:41.719Z,1.20
2018-05-14T14:12:09.570Z,1.00
2018-05-14T14:14:37.419Z,0.80
2018-05-14T14:17:04.916Z,1.50
2018-05-14T14:19:32.725Z,1.23
2018-05-14T14:22:00.576Z,1.03
2018-05-14T14:24:28.527Z,1.17
2018-05-14T14:26:56.275Z,0.63
2018-05-14T14:29:23.979Z,1.20
2018-05-14T14:31:51.483Z,0.83
2018-05-14T14:34:20.214Z,1.47
2018-05-14T14:36:48.068Z,1.10
2018-05-14T14:39:15.916Z,0.93
2018-05-14T14:41:43.766Z,0.80
2018-05-14T14:44:11.419Z,0.70
2018-05-14T14:46:39.075Z,0.70
2018-05-14T14:49:06.806Z,1.10
2018-05-14T14:51:35.168Z,0.80
2018-05-14T14:54:03.019Z,0.73
2018-05-14T14:56:30.669Z,0.83
2018-05-14T14:58:58.523Z,0.60
2018-05-14T15:01:26.228Z,0.90
2018-05-14T15:03:54.029Z,1.40
2018-05-14T15:06:21.877Z,1.33
2018-05-14T15:08:49.730Z,0.80
2018-05-14T15:11:17.577Z,0.60
2018-05-14T15:13:45.289Z,0.73
2018-05-14T15:16:12.786Z,0.67
2018-05-14T15:18:40.513Z,1.33
2018-05-14T15:21:08.041Z,1.30
2018-05-14T15:23:36.960Z,0.73
2018-05-14T15:26:04.580Z,1.23
2018-05-14T15:28:32.185Z,1.00
2018-05-14T15:30:59.984Z,0.73
2018-05-14T15:33:27.637Z,1.03
2018-05-14T15:35:55.338Z,1.07
2018-05-14T15:38:23.194Z,0.90
2018-05-14T15:40:51.040Z,1.40
2018-05-14T15:43:18.558Z,0.63
2018-05-14T15:45:46.059Z,0.90
2018-05-14T15:48:13.559Z,0.83
2018-05-14T15:50:41.091Z,1.10
2018-05-14T15:53:08.721Z,1.10
2018-05-14T15:55:36.763Z,0.70
2018-05-14T15:58:04.565Z,1.07
2018-05-14T16:00:32.415Z,1.10
2018-05-14T16:02:59.915Z,0.80
2018-05-14T16:05:27.460Z,0.70
2018-05-14T16:07:54.998Z,1.00
2018-05-14T16:10:22.526Z,0.80
2018-05-14T16:12:50.023Z,0.90
2018-05-14T16:15:17.537Z,0.80
2018-05-14T16:17:45.037Z,0.80
2018-05-14T16:20:12.558Z,0.70
2018-05-14T16:22:40.078Z,0.90
2018-05-14T16:25:07.616Z,1.40
2018-05-14T16:27:35.665Z,1.00
2018-05-14T16:30:03.236Z,1.20
2018-05-14T16:32:30.785Z,1.17
2018-05-14T16:34:58.335Z,0.90
2018-05-14T16:37:25.824Z,0.87
2018-05-14T16:39:53.399Z,1.57
2018-05-14T16:42:20.914Z,0.80
2018-05-14T16:44:48.656Z,1.23
2018-05-14T16:47:16.458Z,0.73
2018-05-14T16:49:43.975Z,0.80
2018-05-14T16:52:11.501Z,0.70
2018-05-14T16:54:38.994Z,1.00
2018-05-14T16:57:06.513Z,0.80
2018-05-14T16:59:34.062Z,0.97
2018-05-14T17:02:01.607Z,0.90
2018-05-14T17:04:29.124Z,0.80
2018-05-14T17:06:56.617Z,0.70
2018-05-14T17:09:24.106Z,0.70
2018-05-14T17:11:51.610Z,0.70
2018-05-14T17:14:19.146Z,0.80
2018-05-14T17:16:46.920Z,0.90
2018-05-14T17:19:14.424Z,1.70
2018-05-14T17:21:41.927Z,1.47
2018-05-14T17:24:09.461Z,1.10
2018-05-14T17:26:36.961Z,1.30
2018-05-14T17:29:04.504Z,0.90
2018-05-14T17:31:32.062Z,1.50
2018-05-14T17:33:59.593Z,0.70
2018-05-14T17:36:27.098Z,1.00
2018-05-14T17:38:54.633Z,0.97
2018-05-14T17:41:22.349Z,0.80
2018-05-14T17:43:49.868Z,0.90
2018-05-14T17:46:17.423Z,1.70
2018-05-14T17:48:44.944Z,1.13
2018-05-14T17:51:12.478Z,1.27
2018-05-14T17:53:39.989Z,0.87
2018-05-14T17:56:07.495Z,0.83
2018-05-14T17:58:35.029Z,1.00
2018-05-14T18:01:02.566Z,0.80
2018-05-14T18:03:30.232Z,1.13
2018-05-14T18:05:57.765Z,1.20
2018-05-14T18:08:25.271Z,1.00
2018-05-14T18:10:52.889Z,1.17
2018-05-14T18:13:20.303Z,1.17
2018-05-14T18:15:47.817Z,1.20
2018-05-14T18:18:15.312Z,0.87
2018-05-14T18:20:42.888Z,1.03
2018-05-14T18:23:23.220Z,0.90
2018-05-14T18:25:56.235Z,1.20
2018-05-14T18:28:29.393Z,1.40
2018-05-14T18:31:02.854Z,1.10
2018-05-14T18:33:30.437Z,0.93
2018-05-14T18:35:57.993Z,0.97
2018-05-14T18:38:25.523Z,0.90
2018-05-14T18:40:53.027Z,1.00
2018-05-14T18:43:20.540Z,0.90
2018-05-14T18:45:48.069Z,0.90
2018-05-14T18:48:15.562Z,1.10
2018-05-14T18:50:43.067Z,1.27
2018-05-14T18:53:10.599Z,1.10
2018-05-14T18:55:38.097Z,0.80
2018-05-14T18:58:05.622Z,1.20
2018-05-14T19:00:33.387Z,1.30
2018-05-14T19:03:00.989Z,0.80
2018-05-14T19:05:28.644Z,1.37
2018-05-14T19:07:56.494Z,0.90
2018-05-14T19:10:29.849Z,0.87
2018-05-14T19:12:57.501Z,0.87
2018-05-14T19:15:30.713Z,1.23
2018-05-14T19:18:00.083Z,0.83
2018-05-14T19:20:27.593Z,1.13
2018-05-14T19:23:13.874Z,0.70
2018-05-14T19:25:41.389Z,0.87
2018-05-14T19:28:14.675Z,1.07
2018-05-14T19:30:42.253Z,1.00
2018-05-14T19:33:10.048Z,1.00
2018-05-14T19:35:43.501Z,0.80
2018-05-14T19:38:11.128Z,1.33
2018-05-14T19:40:44.476Z,0.90
2018-05-14T19:43:12.093Z,1.00
2018-05-14T19:45:39.666Z,1.30
2018-05-14T19:48:07.189Z,1.00
2018-05-14T19:50:34.711Z,1.40
2018-05-14T19:53:02.263Z,1.03
2018-05-14T19:55:29.779Z,1.30
2018-05-14T19:57:57.300Z,1.00
2018-05-14T20:00:24.838Z,0.63
2018-05-14T20:02:52.647Z,1.00
2018-05-14T20:05:20.298Z,1.10
2018-05-14T20:07:48.006Z,1.13
2018-05-14T20:10:15.561Z,1.07
2018-05-14T20:12:43.073Z,0.97
2018-05-14T20:15:10.611Z,1.20
2018-05-14T20:17:38.135Z,1.00
2018-05-14T20:20:06.143Z,1.10
2018-05-14T20:22:33.633Z,1.80
2018-05-14T20:25:01.218Z,1.00
2018-05-14T20:27:28.786Z,0.90
2018-05-14T20:29:56.282Z,1.07
2018-05-14T20:32:23.801Z,1.07
2018-05-14T20:34:51.302Z,0.80
2018-05-14T20:37:18.814Z,1.07
2018-05-14T20:39:46.341Z,1.03
2018-05-14T20:42:13.991Z,1.40
2018-05-14T20:44:41.532Z,1.10
2018-05-14T20:47:09.088Z,0.90
2018-05-14T20:49:36.621Z,1.13
2018-05-14T20:52:04.225Z,1.07
2018-05-14T20:54:31.718Z,1.20
2018-05-14T20:56:59.259Z,1.10
2018-05-14T20:59:26.774Z,1.10
2018-05-14T21:01:54.296Z,1.00
2018-05-14T21:04:21.849Z,1.17
2018-05-14T21:06:49.574Z,1.20
2018-05-14T21:09:17.221Z,2.07
2018-05-14T21:11:44.722Z,1.63
2018-05-14T21:14:12.418Z,1.37
2018-05-14T21:16:39.989Z,1.20
2018-05-14T21:19:07.587Z,1.00
2018-05-14T21:21:35.102Z,1.10
2018-05-14T21:24:02.913Z,1.40
2018-05-14T21:26:30.471Z,1.67
2018-05-14T21:28:57.968Z,1.37
2018-05-14T21:31:25.489Z,1.50
2018-05-14T21:33:53.009Z,2.30
2018-05-14T21:36:20.513Z,1.87
2018-05-14T21:38:48.051Z,1.70
2018-05-14T21:41:15.550Z,1.50
2018-05-14T21:43:43.060Z,1.23
2018-05-14T21:46:10.617Z,1.40
2018-05-14T21:48:38.113Z,1.40
2018-05-14T21:51:05.666Z,1.20
2018-05-14T21:53:33.145Z,1.10
2018-05-14T21:56:00.595Z,1.00
2018-05-14T21:58:28.102Z,1.00
2018-05-14T22:00:55.552Z,0.90
2018-05-14T22:03:23.011Z,1.20
2018-05-14T22:05:50.562Z,1.10
2018-05-14T22:08:18.028Z,1.30
2018-05-14T22:10:45.483Z,1.27
2018-05-14T22:13:12.946Z,1.13
2018-05-14T22:15:40.486Z,1.37
2018-05-14T22:18:08.037Z,1.20
2018-05-14T22:20:35.541Z,1.50
2018-05-14T22:23:03.093Z,1.43
2018-05-14T22:25:30.612Z,1.40
2018-05-14T22:27:58.126Z,1.10
2018-05-14T22:30:25.633Z,1.23
2018-05-14T22:32:53.140Z,1.30
2018-05-14T22:35:20.595Z,1.30
2018-05-14T22:37:48.100Z,1.50
2018-05-14T22:40:15.591Z,1.97
2018-05-14T22:42:43.110Z,2.27
2018-05-14T22:45:10.613Z,2.20
2018-05-14T22:47:38.141Z,2.70
2018-05-14T22:50:06.241Z,2.67
2018-05-14T22:52:33.763Z,2.13
2018-05-14T22:55:01.332Z,1.87
2018-05-14T22:57:28.837Z,2.23
2018-05-14T22:59:56.398Z,1.80
2018-05-14T23:02:23.885Z,1.93
2018-05-14T23:04:51.397Z,2.00
2018-05-14T23:07:18.906Z,1.77
2018-05-14T23:09:46.418Z,2.00
2018-05-14T23:12:13.914Z,2.47
2018-05-14T23:14:41.421Z,1.87
2018-05-14T23:17:08.927Z,2.10
2018-05-14T23:19:36.434Z,1.70
2018-05-14T23:22:03.987Z,1.93
2018-05-14T23:24:31.550Z,1.90
2018-05-14T23:26:59.120Z,1.90
2018-05-14T23:29:26.761Z,2.13
2018-05-14T23:31:54.313Z,2.20
2018-05-14T23:34:21.812Z,1.70
2018-05-14T23:36:49.377Z,1.60
2018-05-14T23:39:16.878Z,1.60
2018-05-14T23:41:44.377Z,1.60
2018-05-14T23:44:12.072Z,1.60
2018-05-14T23:46:39.873Z,1.87
2018-05-14T23:49:07.724Z,2.10
2018-05-14T23:51:36.414Z,1.87
2018-05-14T23:54:04.211Z,2.00
2018-05-14T23:56:31.914Z,1.80
2018-05-14T23:58:59.429Z,1.70
